Terminal Aerodrome Forecast
Issued by NWS Cleveland, OH

Home | Current Version | Previous Version | Graphics & Text | Print | Product List | Glossary Off
Versions: 1 2 3 4 5 6 7 8 9 10 11 12 13 14 15 16

000
FTUS41 KCLE 181500 AAA
TAFERI
TAF AMD
KERI 181521Z 1815/1912 21010KT P6SM SCT120 OVC250
     FM181900 26012G18KT P6SM VCSH SCT040 OVC100
     FM190300 35007KT P6SM SCT100 BKN200=

USA.gov is the U.S. government's official web portal to all federal, state and local government web resources and services.